createdAt,value
2023-08-11T00:00:54.405Z,23.78
2023-08-11T00:02:56.115Z,23.77
2023-08-11T00:04:58.185Z,23.78
2023-08-11T00:06:59.829Z,23.78
2023-08-11T00:09:01.788Z,23.77
2023-08-11T00:11:03.436Z,23.77
2023-08-11T00:13:07.614Z,23.75
2023-08-11T00:15:09.651Z,23.76
2023-08-11T00:17:12.109Z,23.75
2023-08-11T00:19:14.502Z,23.75
2023-08-11T00:21:16.205Z,23.74
2023-08-11T00:23:17.802Z,23.75
2023-08-11T00:25:19.401Z,23.74
2023-08-11T00:27:21.031Z,23.73
2023-08-11T00:29:22.613Z,23.73
2023-08-11T00:31:24.464Z,23.70
2023-08-11T00:35:33.074Z,23.71
2023-08-11T00:37:35.410Z,23.70
2023-08-11T00:39:37.130Z,23.69
2023-08-11T00:41:38.746Z,23.69
2023-08-11T00:43:40.587Z,23.69
2023-08-11T00:47:52.499Z,23.68
2023-08-11T00:49:54.465Z,23.67
2023-08-11T00:51:56.132Z,23.68
2023-08-11T00:53:59.280Z,23.66
2023-08-11T00:58:10.459Z,23.65
2023-08-11T01:00:17.057Z,23.64
2023-08-11T01:02:18.895Z,23.65
2023-08-11T01:04:21.704Z,23.63
2023-08-11T01:07:37.259Z,23.64
2023-08-11T01:09:48.663Z,23.62
2023-08-11T01:12:07.091Z,23.64
2023-08-11T01:14:20.208Z,23.60
2023-08-11T01:16:24.919Z,23.62
2023-08-11T01:18:29.228Z,23.61
2023-08-11T01:20:32.430Z,23.60
2023-08-11T01:22:36.985Z,23.61
2023-08-11T01:24:39.135Z,23.60
2023-08-11T01:26:40.789Z,23.60
2023-08-11T01:30:50.114Z,23.58
2023-08-11T01:32:55.156Z,23.57
2023-08-11T01:34:56.788Z,23.54
2023-08-11T01:37:02.283Z,23.57
2023-08-11T01:39:05.883Z,23.57
2023-08-11T01:41:07.752Z,23.56
2023-08-11T01:43:12.344Z,23.56
2023-08-11T01:45:16.897Z,23.53
2023-08-11T01:47:20.172Z,23.55
2023-08-11T01:49:25.704Z,23.52
2023-08-11T01:51:28.260Z,23.54
2023-08-11T01:53:29.903Z,23.55
2023-08-11T01:55:31.856Z,23.54
2023-08-11T01:57:39.140Z,23.52
2023-08-11T01:59:43.913Z,23.53
2023-08-11T02:01:45.535Z,23.52
2023-08-11T02:03:47.420Z,23.51
2023-08-11T02:05:49.771Z,23.50
2023-08-11T02:07:53.015Z,23.51
2023-08-11T02:09:55.668Z,23.50
2023-08-11T02:11:57.305Z,23.50
2023-08-11T02:13:58.845Z,23.50
2023-08-11T02:16:00.590Z,23.49
2023-08-11T02:18:02.251Z,23.48
2023-08-11T02:20:23.164Z,23.49
2023-08-11T02:22:25.977Z,23.47
2023-08-11T02:24:27.562Z,23.48
2023-08-11T02:26:29.206Z,23.46
2023-08-11T02:28:30.864Z,23.46
2023-08-11T02:30:33.003Z,23.45
2023-08-11T02:32:34.917Z,23.43
2023-08-11T02:34:37.331Z,23.44
2023-08-11T02:36:38.889Z,23.44
2023-08-11T02:38:41.169Z,23.43
2023-08-11T02:40:43.154Z,23.44
2023-08-11T02:42:49.670Z,23.42
2023-08-11T02:44:51.511Z,23.43
2023-08-11T02:46:53.083Z,23.42
2023-08-11T02:48:54.815Z,23.42
2023-08-11T02:50:56.487Z,23.42
2023-08-11T02:52:58.091Z,23.42
2023-08-11T02:55:00.191Z,23.41
2023-08-11T02:57:02.822Z,23.39
2023-08-11T02:59:04.829Z,23.39
2023-08-11T03:01:06.440Z,23.39
2023-08-11T03:03:08.609Z,23.39
2023-08-11T03:05:13.683Z,23.36
2023-08-11T03:07:17.340Z,23.36
2023-08-11T03:09:18.995Z,23.35
2023-08-11T03:11:20.737Z,23.36
2023-08-11T03:13:22.788Z,23.35
2023-08-11T03:15:24.507Z,23.35
2023-08-11T03:17:26.353Z,23.35
2023-08-11T03:19:27.990Z,23.34
2023-08-11T03:21:29.636Z,23.33
2023-08-11T03:23:31.284Z,23.32
2023-08-11T03:25:33.005Z,23.32
2023-08-11T03:27:35.707Z,23.33
2023-08-11T03:29:37.353Z,23.32
2023-08-11T03:31:38.974Z,23.32
2023-08-11T03:33:40.754Z,23.31
2023-08-11T03:35:42.543Z,23.32
2023-08-11T03:37:44.410Z,23.30
2023-08-11T03:39:47.312Z,23.32
2023-08-11T03:41:49.077Z,23.32
2023-08-11T03:43:50.690Z,23.31
2023-08-11T03:45:52.855Z,23.30
2023-08-11T03:47:54.574Z,23.30
2023-08-11T03:49:56.293Z,23.29
2023-08-11T03:51:58.406Z,23.29
2023-08-11T03:54:03.473Z,23.29
2023-08-11T03:56:08.569Z,23.30
2023-08-11T03:58:10.455Z,23.30
2023-08-11T04:00:16.195Z,23.30
2023-08-11T04:02:17.738Z,23.29
2023-08-11T04:04:19.555Z,23.29
2023-08-11T04:06:21.309Z,23.28
2023-08-11T04:08:22.995Z,23.28
2023-08-11T04:10:25.652Z,23.28
2023-08-11T04:12:27.521Z,23.25
2023-08-11T04:14:29.142Z,23.25
2023-08-11T04:16:30.808Z,23.25
2023-08-11T04:18:32.418Z,23.25
2023-08-11T04:20:34.627Z,23.24
2023-08-11T04:22:39.058Z,23.25
2023-08-11T04:24:40.959Z,23.23
2023-08-11T04:26:42.610Z,23.20
2023-08-11T04:28:44.967Z,23.24
2023-08-11T04:30:46.625Z,23.23
2023-08-11T04:32:48.915Z,23.24
2023-08-11T04:34:50.534Z,23.18
2023-08-11T04:36:52.315Z,23.21
2023-08-11T04:38:54.000Z,23.20
2023-08-11T04:40:55.678Z,23.21
2023-08-11T04:42:57.282Z,23.20
2023-08-11T04:44:59.757Z,23.20
2023-08-11T04:47:01.468Z,23.20
2023-08-11T04:49:03.389Z,23.19
2023-08-11T04:51:05.034Z,23.17
2023-08-11T04:53:06.642Z,23.16
2023-08-11T04:55:08.973Z,23.18
2023-08-11T04:57:10.762Z,23.18
2023-08-11T04:59:13.256Z,23.18
2023-08-11T05:03:22.546Z,23.17
2023-08-11T05:05:24.487Z,23.17
2023-08-11T05:07:26.187Z,23.16
2023-08-11T05:09:27.838Z,23.14
2023-08-11T05:11:30.236Z,23.15
2023-08-11T05:13:31.972Z,23.13
2023-08-11T05:15:33.667Z,23.16
2023-08-11T05:17:35.662Z,23.16
2023-08-11T05:19:37.859Z,23.15
2023-08-11T05:21:40.584Z,23.15
2023-08-11T05:23:42.342Z,23.13
2023-08-11T05:25:44.113Z,23.12
2023-08-11T05:27:46.385Z,23.12
2023-08-11T05:29:49.335Z,23.11
2023-08-11T05:31:51.150Z,23.10
2023-08-11T05:33:53.434Z,23.11
2023-08-11T05:35:54.990Z,23.11
2023-08-11T05:37:57.347Z,23.12
2023-08-11T05:39:59.922Z,23.10
2023-08-11T05:42:01.744Z,23.08
2023-08-11T05:44:04.213Z,23.09
2023-08-11T05:46:08.759Z,23.09
2023-08-11T05:48:10.723Z,23.08
2023-08-11T05:50:12.397Z,23.08
2023-08-11T05:52:14.027Z,23.07
2023-08-11T05:54:15.727Z,23.08
2023-08-11T05:56:17.345Z,23.08
2023-08-11T05:58:18.953Z,23.05
2023-08-11T06:00:21.188Z,23.08
2023-08-11T06:02:23.059Z,23.08
2023-08-11T06:04:24.629Z,23.08
2023-08-11T06:06:27.690Z,23.09
2023-08-11T06:08:29.628Z,23.08
2023-08-11T06:10:32.056Z,23.07
2023-08-11T06:12:33.715Z,23.09
2023-08-11T06:14:35.285Z,23.09
2023-08-11T06:16:36.880Z,23.09
2023-08-11T06:18:39.044Z,23.09
2023-08-11T06:20:42.035Z,23.07
2023-08-11T06:22:44.432Z,23.09
2023-08-11T06:24:46.002Z,23.10
2023-08-11T06:26:47.913Z,23.09
2023-08-11T06:28:49.903Z,23.10
2023-08-11T06:30:51.683Z,23.09
2023-08-11T06:32:53.294Z,23.09
2023-08-11T06:34:55.135Z,23.07
2023-08-11T06:36:56.735Z,23.09
2023-08-11T06:38:58.456Z,23.09
2023-08-11T06:41:00.594Z,23.10
2023-08-11T06:43:02.469Z,23.11
2023-08-11T06:45:05.128Z,23.09
2023-08-11T06:47:07.125Z,23.10
2023-08-11T06:49:09.092Z,23.09
2023-08-11T06:51:10.837Z,23.09
2023-08-11T06:53:12.525Z,23.09
2023-08-11T06:55:14.152Z,23.10
2023-08-11T06:57:18.595Z,23.11
2023-08-11T06:59:20.326Z,23.11
2023-08-11T07:01:21.966Z,23.12
2023-08-11T07:03:24.039Z,23.13
2023-08-11T07:05:26.202Z,23.13
2023-08-11T07:07:27.824Z,23.12
2023-08-11T07:09:29.834Z,23.14
2023-08-11T07:11:31.472Z,23.15
2023-08-11T07:13:33.118Z,23.15
2023-08-11T07:15:37.357Z,23.15
2023-08-11T07:17:40.606Z,23.16
2023-08-11T07:19:42.571Z,23.16
2023-08-11T07:21:44.360Z,23.15
2023-08-11T07:23:46.006Z,23.15
2023-08-11T07:25:47.599Z,23.17
2023-08-11T07:27:49.199Z,23.16
2023-08-11T07:29:50.945Z,23.15
2023-08-11T07:31:52.656Z,23.19
2023-08-11T07:33:54.248Z,23.19
2023-08-11T07:35:55.931Z,23.19
2023-08-11T07:37:57.997Z,23.21
2023-08-11T07:39:59.816Z,23.20
2023-08-11T07:42:04.096Z,23.23
2023-08-11T07:44:06.035Z,23.23
2023-08-11T07:46:07.794Z,23.24
2023-08-11T07:48:09.457Z,23.25
2023-08-11T07:50:11.540Z,23.27
2023-08-11T07:52:13.393Z,23.27
2023-08-11T07:54:15.229Z,23.29
2023-08-11T07:56:16.953Z,23.30
2023-08-11T07:58:19.013Z,23.32
2023-08-11T08:00:25.887Z,23.33
2023-08-11T08:02:27.575Z,23.35
2023-08-11T08:04:29.322Z,23.35
2023-08-11T08:06:33.986Z,23.36
2023-08-11T08:08:35.589Z,23.38
2023-08-11T08:10:37.206Z,23.40
2023-08-11T08:12:39.744Z,23.42
2023-08-11T08:14:44.404Z,23.43
2023-08-11T08:16:46.217Z,23.45
2023-08-11T08:18:48.043Z,23.45
2023-08-11T08:20:49.661Z,23.47
2023-08-11T08:22:51.231Z,23.50
2023-08-11T08:24:53.323Z,23.50
2023-08-11T08:26:55.022Z,23.48
2023-08-11T08:28:56.580Z,23.51
2023-08-11T08:30:58.168Z,23.53
2023-08-11T08:32:59.789Z,23.52
2023-08-11T08:35:01.457Z,23.56
2023-08-11T08:37:03.059Z,23.55
2023-08-11T08:39:06.859Z,23.57
2023-08-11T08:41:11.186Z,23.56
2023-08-11T08:43:12.966Z,23.59
2023-08-11T08:45:15.234Z,23.59
2023-08-11T08:47:19.198Z,23.56
2023-08-11T08:49:26.606Z,23.62
2023-08-11T08:51:29.876Z,23.62
2023-08-11T08:53:32.218Z,23.64
2023-08-11T08:55:34.454Z,23.66
2023-08-11T08:57:36.232Z,23.66
2023-08-11T08:59:38.933Z,23.67
2023-08-11T09:01:42.178Z,23.67
2023-08-11T09:03:44.793Z,23.68
2023-08-11T09:05:46.511Z,23.69
2023-08-11T09:07:48.856Z,23.70
2023-08-11T09:09:50.457Z,23.72
2023-08-11T09:11:52.098Z,23.73
2023-08-11T09:13:54.001Z,23.73
2023-08-11T09:15:55.829Z,23.72
2023-08-11T09:17:59.765Z,23.75
2023-08-11T09:20:01.527Z,23.76
2023-08-11T09:22:03.708Z,23.77
2023-08-11T09:24:10.378Z,23.78
2023-08-11T09:26:12.003Z,23.79
2023-08-11T09:28:13.865Z,23.80
2023-08-11T09:30:15.484Z,23.80
2023-08-11T09:32:17.106Z,23.83
2023-08-11T09:34:19.898Z,23.84
2023-08-11T09:36:21.623Z,23.85
2023-08-11T09:38:26.370Z,23.85
2023-08-11T09:40:28.280Z,23.86
2023-08-11T09:48:54.666Z,23.90
2023-08-11T09:50:59.918Z,23.91
2023-08-11T09:53:05.680Z,23.95
2023-08-11T09:55:10.682Z,23.94
2023-08-11T09:57:14.721Z,23.95
2023-08-11T09:59:20.235Z,23.94
2023-08-11T10:01:22.764Z,23.96
2023-08-11T10:03:31.770Z,23.98
2023-08-11T10:05:36.787Z,23.99
2023-08-11T10:07:43.199Z,24.01
2023-08-11T10:09:46.587Z,23.99
2023-08-11T10:11:48.952Z,24.01
2023-08-11T10:13:50.903Z,24.02
2023-08-11T10:15:53.336Z,24.04
2023-08-11T10:17:58.027Z,24.04
2023-08-11T10:20:05.666Z,24.07
2023-08-11T10:22:08.039Z,24.08
2023-08-11T10:24:10.868Z,24.09
2023-08-11T10:26:13.228Z,24.10
2023-08-11T10:28:16.683Z,24.10
2023-08-11T10:30:19.534Z,24.12
2023-08-11T10:34:30.764Z,24.13
2023-08-11T10:38:39.958Z,24.11
2023-08-11T10:40:41.607Z,24.17
2023-08-11T10:44:51.836Z,24.18
2023-08-11T10:46:53.574Z,24.18
2023-08-11T10:48:59.259Z,24.20
2023-08-11T10:51:02.347Z,24.21
2023-08-11T10:53:08.208Z,24.23
2023-08-11T10:55:11.028Z,24.22
2023-08-11T10:57:12.811Z,24.24
2023-08-11T10:59:17.553Z,24.27
2023-08-11T11:01:19.307Z,24.30
2023-08-11T11:03:21.372Z,24.32
2023-08-11T11:05:23.457Z,24.32
2023-08-11T11:07:26.035Z,24.34
2023-08-11T11:09:29.129Z,24.35
2023-08-11T11:11:32.052Z,24.38
2023-08-11T11:13:33.835Z,24.39
2023-08-11T11:15:35.762Z,24.41
2023-08-11T11:17:39.125Z,24.44
2023-08-11T11:19:41.513Z,24.58
2023-08-11T11:21:43.253Z,24.66
2023-08-11T11:23:49.528Z,24.71
2023-08-11T11:25:51.100Z,24.72
2023-08-11T11:27:52.722Z,24.72
2023-08-11T11:30:00.867Z,24.71
2023-08-11T11:32:07.914Z,24.72
2023-08-11T11:34:10.226Z,24.72
2023-08-11T11:36:12.773Z,24.72
2023-08-11T11:38:14.897Z,24.73
2023-08-11T11:40:17.411Z,24.74
2023-08-11T11:42:19.004Z,24.76
2023-08-11T11:44:21.358Z,24.77
2023-08-11T11:46:23.615Z,24.79
2023-08-11T11:48:25.391Z,24.80
2023-08-11T11:50:30.279Z,24.82
2023-08-11T11:52:32.132Z,24.83
2023-08-11T11:54:35.225Z,24.84
2023-08-11T11:56:39.705Z,24.86
2023-08-11T11:58:45.173Z,24.87
2023-08-11T12:00:47.513Z,24.90
2023-08-11T12:02:49.222Z,24.92
2023-08-11T12:04:51.230Z,24.93
2023-08-11T12:06:53.030Z,24.94
2023-08-11T12:09:05.062Z,24.97
2023-08-11T12:11:08.747Z,25.00
2023-08-11T12:13:10.388Z,25.04
2023-08-11T12:15:14.580Z,25.09
2023-08-11T12:17:16.236Z,25.13
2023-08-11T12:19:19.687Z,25.17
2023-08-11T12:21:21.756Z,25.20
2023-08-11T12:23:24.777Z,25.22
2023-08-11T12:25:26.417Z,25.22
2023-08-11T12:27:29.628Z,25.24
2023-08-11T12:29:31.245Z,25.27
2023-08-11T12:31:32.817Z,25.29
2023-08-11T12:33:34.617Z,25.31
2023-08-11T12:35:36.519Z,25.31
2023-08-11T12:37:38.943Z,25.33
2023-08-11T12:39:41.341Z,25.36
2023-08-11T12:41:42.951Z,25.35
2023-08-11T12:43:44.592Z,25.37
2023-08-11T12:45:46.358Z,25.37
2023-08-11T12:47:48.352Z,25.37
2023-08-11T12:49:50.678Z,25.37
2023-08-11T12:51:52.486Z,25.37
2023-08-11T12:53:54.180Z,25.37
2023-08-11T12:55:55.739Z,25.37
2023-08-11T12:57:57.479Z,25.38
2023-08-11T12:59:59.394Z,25.38
2023-08-11T13:02:01.005Z,25.38
2023-08-11T13:04:05.005Z,25.36
2023-08-11T13:06:06.645Z,25.36
2023-08-11T13:08:08.358Z,25.35
2023-08-11T13:10:11.812Z,25.32
2023-08-11T13:12:13.619Z,25.33
2023-08-11T13:14:15.322Z,25.32
2023-08-11T13:16:17.377Z,25.32
2023-08-11T13:18:19.169Z,25.31
2023-08-11T13:20:22.214Z,25.32
2023-08-11T13:22:23.929Z,25.31
2023-08-11T13:24:25.520Z,25.32
2023-08-11T13:26:27.155Z,25.31
2023-08-11T13:28:28.817Z,25.30
2023-08-11T13:30:32.375Z,25.31
2023-08-11T13:32:34.237Z,25.34
2023-08-11T13:34:35.896Z,25.36
2023-08-11T13:36:37.534Z,25.36
2023-08-11T13:38:39.141Z,25.39
2023-08-11T13:40:40.732Z,25.40
2023-08-11T13:42:43.541Z,25.42
2023-08-11T13:44:45.410Z,25.45
2023-08-11T13:46:47.158Z,25.45
2023-08-11T13:48:48.818Z,25.50
2023-08-11T13:50:50.485Z,25.53
2023-08-11T13:52:52.228Z,25.54
2023-08-11T13:54:58.714Z,25.58
2023-08-11T13:57:00.338Z,25.59
2023-08-11T13:59:02.785Z,25.62
2023-08-11T14:01:04.602Z,25.64
2023-08-11T14:03:06.401Z,25.67
2023-08-11T14:05:08.561Z,25.71
2023-08-11T14:07:22.967Z,25.75
2023-08-11T14:09:30.528Z,25.77
2023-08-11T14:11:32.367Z,25.80
2023-08-11T14:13:34.270Z,25.83
2023-08-11T14:15:36.795Z,25.83
2023-08-11T14:17:38.519Z,25.85
2023-08-11T14:19:40.292Z,25.85
2023-08-11T14:21:42.563Z,25.87
2023-08-11T14:23:44.555Z,25.88
2023-08-11T14:25:47.540Z,25.89
2023-08-11T14:27:49.233Z,25.90
2023-08-11T14:29:50.893Z,25.89
2023-08-11T14:31:52.580Z,25.90
2023-08-11T14:33:54.353Z,25.92
2023-08-11T14:36:03.506Z,25.89
2023-08-11T14:38:05.396Z,25.90
2023-08-11T14:40:08.238Z,25.87
2023-08-11T14:42:10.105Z,25.92
2023-08-11T14:44:11.896Z,25.92
2023-08-11T14:46:13.967Z,25.92
2023-08-11T14:48:15.706Z,25.92
2023-08-11T14:50:17.789Z,25.94
2023-08-11T14:52:19.560Z,25.92
2023-08-11T14:54:21.186Z,25.93
2023-08-11T14:56:22.863Z,25.93
2023-08-11T14:58:24.545Z,25.92
2023-08-11T15:00:26.215Z,25.92
2023-08-11T15:02:27.954Z,25.92
2023-08-11T15:04:29.689Z,25.93
2023-08-11T15:06:31.337Z,25.93
2023-08-11T15:08:33.128Z,25.95
2023-08-11T15:10:35.183Z,25.90
2023-08-11T15:12:36.800Z,25.92
2023-08-11T15:14:38.513Z,25.90
2023-08-11T15:16:40.195Z,25.89
2023-08-11T15:18:42.473Z,25.88
2023-08-11T15:20:44.022Z,25.87
2023-08-11T15:22:45.689Z,25.86
2023-08-11T15:24:47.351Z,25.86
2023-08-11T15:26:48.960Z,25.85
2023-08-11T15:28:50.979Z,25.85
2023-08-11T15:30:52.850Z,25.85
2023-08-11T15:32:54.537Z,25.78
2023-08-11T15:34:56.456Z,25.82
2023-08-11T15:36:58.198Z,25.81
2023-08-11T15:39:00.632Z,25.80
2023-08-11T15:41:03.398Z,25.79
2023-08-11T15:43:06.677Z,25.79
2023-08-11T15:45:08.946Z,25.79
2023-08-11T15:47:11.063Z,25.79
2023-08-11T15:49:12.630Z,25.76
2023-08-11T15:51:14.250Z,25.78
2023-08-11T15:53:15.903Z,25.77
2023-08-11T15:55:24.944Z,25.76
2023-08-11T15:57:31.795Z,25.77
2023-08-11T15:59:33.658Z,25.78
2023-08-11T16:01:35.462Z,25.77
2023-08-11T16:03:37.233Z,25.76
2023-08-11T16:05:38.981Z,25.73
2023-08-11T16:07:40.586Z,25.75
2023-08-11T16:09:42.165Z,25.73
2023-08-11T16:11:45.777Z,25.74
2023-08-11T16:13:47.421Z,25.73
2023-08-11T16:15:49.061Z,25.69
2023-08-11T16:17:53.308Z,25.67
2023-08-11T16:19:55.100Z,25.66
2023-08-11T16:21:56.745Z,25.68
2023-08-11T16:23:58.336Z,25.71
2023-08-11T16:26:01.133Z,25.72
2023-08-11T16:28:02.921Z,25.75
2023-08-11T16:30:05.982Z,25.77
2023-08-11T16:32:11.114Z,25.81
2023-08-11T16:34:13.010Z,25.84
2023-08-11T16:36:14.635Z,25.86
2023-08-11T16:38:16.260Z,25.87
2023-08-11T16:40:18.047Z,25.90
2023-08-11T16:42:20.053Z,25.90
2023-08-11T16:44:21.724Z,25.93
2023-08-11T16:46:24.279Z,25.93
2023-08-11T16:48:25.915Z,25.93
2023-08-11T16:50:27.567Z,25.94
2023-08-11T16:52:29.204Z,25.94
2023-08-11T16:54:31.072Z,25.90
2023-08-11T16:56:32.660Z,25.95
2023-08-11T16:58:34.526Z,25.95
2023-08-11T17:00:36.711Z,25.90
2023-08-11T17:02:38.404Z,25.95
2023-08-11T17:04:40.112Z,25.97
2023-08-11T17:06:41.928Z,25.97
2023-08-11T17:08:43.593Z,25.98
2023-08-11T17:10:45.381Z,25.98
2023-08-11T17:12:48.896Z,25.96
2023-08-11T17:14:53.579Z,25.93
2023-08-11T17:16:55.282Z,25.94
2023-08-11T17:18:56.992Z,25.93
2023-08-11T17:20:59.728Z,25.93
2023-08-11T17:23:01.336Z,25.92
2023-08-11T17:25:03.243Z,25.93
2023-08-11T17:27:05.563Z,25.93
2023-08-11T17:29:07.274Z,25.93
2023-08-11T17:31:09.119Z,25.93
2023-08-11T17:33:13.839Z,25.94
2023-08-11T17:35:15.984Z,25.93
2023-08-11T17:37:17.622Z,25.94
2023-08-11T17:39:19.468Z,25.95
2023-08-11T17:41:21.447Z,25.95
2023-08-11T17:43:23.060Z,25.94
2023-08-11T17:45:24.632Z,25.90
2023-08-11T17:47:26.284Z,25.90
2023-08-11T17:49:27.850Z,25.90
2023-08-11T17:51:29.751Z,25.90
2023-08-11T17:53:31.532Z,25.90
2023-08-11T17:55:33.949Z,25.90
2023-08-11T17:57:36.134Z,25.94
2023-08-11T17:59:37.734Z,25.95
2023-08-11T18:01:39.698Z,25.97
2023-08-11T18:03:41.467Z,25.97
2023-08-11T18:05:43.148Z,25.97
2023-08-11T18:07:45.567Z,25.97
2023-08-11T18:09:47.347Z,26.00
2023-08-11T18:11:49.133Z,25.99
2023-08-11T18:13:50.817Z,25.99
2023-08-11T18:15:52.522Z,25.96
2023-08-11T18:17:54.940Z,25.96
2023-08-11T18:19:56.537Z,25.92
2023-08-11T18:21:58.152Z,26.01
2023-08-11T18:23:59.891Z,26.06
2023-08-11T18:26:02.045Z,26.07
2023-08-11T18:28:03.888Z,26.11
2023-08-11T18:30:06.485Z,26.10
2023-08-11T18:32:08.380Z,26.09
2023-08-11T18:34:10.621Z,26.10
2023-08-11T18:36:12.372Z,26.09
2023-08-11T18:38:13.996Z,26.06
2023-08-11T18:40:15.957Z,26.08
2023-08-11T18:42:17.550Z,26.08
2023-08-11T18:44:19.369Z,26.07
2023-08-11T18:46:21.080Z,26.08
2023-08-11T18:48:22.938Z,26.09
2023-08-11T18:50:24.605Z,26.08
2023-08-11T18:52:26.406Z,26.11
2023-08-11T18:54:28.142Z,26.10
2023-08-11T18:56:30.543Z,26.08
2023-08-11T18:58:32.226Z,26.06
2023-08-11T19:00:33.840Z,26.03
2023-08-11T19:02:35.804Z,26.00
2023-08-11T19:04:37.509Z,25.99
2023-08-11T19:06:41.497Z,25.98
2023-08-11T19:08:44.131Z,25.95
2023-08-11T19:10:46.035Z,25.92
2023-08-11T19:12:47.694Z,25.89
2023-08-11T19:14:49.394Z,25.85
2023-08-11T19:16:51.075Z,25.82
2023-08-11T19:18:52.725Z,25.78
2023-08-11T19:20:54.615Z,25.74
2023-08-11T19:22:57.286Z,25.71
2023-08-11T19:24:58.859Z,25.67
2023-08-11T19:27:00.468Z,25.63
2023-08-11T19:29:02.240Z,25.59
2023-08-11T19:31:04.017Z,25.55
2023-08-11T19:33:05.654Z,25.52
2023-08-11T19:35:07.755Z,25.47
2023-08-11T19:37:09.486Z,25.43
2023-08-11T19:39:11.181Z,25.38
2023-08-11T19:41:12.909Z,25.35
2023-08-11T19:43:14.670Z,25.31
2023-08-11T19:45:16.268Z,25.27
2023-08-11T19:47:17.876Z,25.23
2023-08-11T19:49:22.881Z,25.22
2023-08-11T19:51:24.542Z,25.20
2023-08-11T19:53:27.481Z,25.17
2023-08-11T19:55:29.018Z,25.17
2023-08-11T19:57:30.760Z,25.14
2023-08-11T19:59:32.298Z,25.11
2023-08-11T20:01:33.910Z,25.04
2023-08-11T20:03:35.669Z,25.07
2023-08-11T20:05:47.180Z,25.07
2023-08-11T20:07:48.855Z,25.06
2023-08-11T20:09:50.481Z,25.03
2023-08-11T20:11:52.357Z,25.01
2023-08-11T20:13:54.024Z,24.98
2023-08-11T20:16:00.993Z,24.95
2023-08-11T20:18:02.779Z,24.93
2023-08-11T20:20:05.471Z,24.90
2023-08-11T20:22:07.322Z,24.88
2023-08-11T20:24:09.487Z,24.86
2023-08-11T20:26:11.201Z,24.84
2023-08-11T20:28:12.963Z,24.83
2023-08-11T20:30:14.868Z,24.81
2023-08-11T20:32:16.602Z,24.80
2023-08-11T20:34:18.424Z,24.77
2023-08-11T20:36:20.192Z,24.77
2023-08-11T20:38:21.771Z,24.72
2023-08-11T20:40:23.378Z,24.74
2023-08-11T20:42:25.075Z,24.73
2023-08-11T20:44:26.706Z,24.70
2023-08-11T20:46:28.270Z,24.69
2023-08-11T20:48:30.461Z,24.69
2023-08-11T20:50:35.431Z,24.67
2023-08-11T20:52:37.046Z,24.66
2023-08-11T20:54:40.254Z,24.64
2023-08-11T20:56:41.883Z,24.61
2023-08-11T20:58:43.482Z,24.62
2023-08-11T21:00:46.486Z,24.61
2023-08-11T21:02:48.255Z,24.58
2023-08-11T21:04:49.913Z,24.57
2023-08-11T21:06:51.582Z,24.56
2023-08-11T21:08:53.166Z,24.55
2023-08-11T21:10:54.920Z,24.53
2023-08-11T21:12:56.535Z,24.50
2023-08-11T21:14:58.498Z,24.51
2023-08-11T21:17:02.402Z,24.49
2023-08-11T21:19:05.163Z,24.49
2023-08-11T21:21:06.744Z,24.48
2023-08-11T21:23:08.452Z,24.46
2023-08-11T21:25:10.103Z,24.46
2023-08-11T21:27:12.095Z,24.45
2023-08-11T21:29:14.016Z,24.42
2023-08-11T21:31:18.704Z,24.41
2023-08-11T21:33:20.946Z,24.40
2023-08-11T21:35:22.607Z,24.38
2023-08-11T21:37:24.280Z,24.38
2023-08-11T21:39:26.084Z,24.38
2023-08-11T21:41:31.740Z,24.36
2023-08-11T21:43:33.507Z,24.35
2023-08-11T21:45:35.105Z,24.34
2023-08-11T21:47:36.874Z,24.34
2023-08-11T21:49:40.948Z,24.33
2023-08-11T21:51:43.756Z,24.32
2023-08-11T21:53:45.416Z,24.31
2023-08-11T21:55:47.034Z,24.29
2023-08-11T21:57:48.630Z,24.28
2023-08-11T21:59:50.353Z,24.28
2023-08-11T22:01:51.965Z,24.28
2023-08-11T22:03:53.613Z,24.25
2023-08-11T22:05:55.542Z,24.27
2023-08-11T22:07:57.995Z,24.23
2023-08-11T22:09:59.876Z,24.22
2023-08-11T22:12:01.454Z,24.23
2023-08-11T22:14:03.376Z,24.21
2023-08-11T22:16:05.210Z,24.20
2023-08-11T22:18:06.874Z,24.20
2023-08-11T22:20:09.336Z,24.18
2023-08-11T22:22:14.996Z,24.17
2023-08-11T22:24:24.077Z,24.18
2023-08-11T22:26:32.578Z,24.16
2023-08-11T22:28:34.289Z,24.15
2023-08-11T22:30:36.212Z,24.15
2023-08-11T22:32:37.985Z,24.14
2023-08-11T22:34:39.546Z,24.13
2023-08-11T22:36:41.135Z,24.13
2023-08-11T22:38:42.896Z,24.12
2023-08-11T22:40:44.566Z,24.11
2023-08-11T22:42:46.165Z,24.08
2023-08-11T22:44:48.377Z,24.09
2023-08-11T22:46:51.109Z,24.08
2023-08-11T22:48:52.835Z,24.08
2023-08-11T22:50:55.074Z,24.06
2023-08-11T22:52:56.720Z,24.05
2023-08-11T22:54:58.352Z,24.05
2023-08-11T22:56:59.973Z,24.04
2023-08-11T22:59:01.774Z,24.03
2023-08-11T23:01:03.371Z,24.03
2023-08-11T23:03:06.410Z,24.02
2023-08-11T23:05:09.272Z,24.03
2023-08-11T23:07:11.085Z,24.01
2023-08-11T23:09:13.002Z,24.00
2023-08-11T23:11:14.586Z,23.98
2023-08-11T23:13:16.288Z,23.99
2023-08-11T23:15:19.062Z,23.99
2023-08-11T23:17:26.128Z,23.99
2023-08-11T23:19:27.719Z,23.98
2023-08-11T23:21:30.324Z,23.97
2023-08-11T23:23:31.915Z,23.96
2023-08-11T23:25:34.172Z,23.97
2023-08-11T23:27:35.971Z,23.95
2023-08-11T23:29:37.950Z,23.96
2023-08-11T23:31:42.869Z,23.95
2023-08-11T23:33:45.085Z,23.95
2023-08-11T23:35:46.904Z,23.93
2023-08-11T23:37:48.518Z,23.93
2023-08-11T23:39:50.127Z,23.92
2023-08-11T23:41:52.027Z,23.91
2023-08-11T23:43:53.617Z,23.91
2023-08-11T23:45:56.120Z,23.90
2023-08-11T23:47:58.581Z,23.90
2023-08-11T23:50:00.445Z,23.88
2023-08-11T23:52:02.022Z,23.89
2023-08-11T23:54:03.906Z,23.87
2023-08-11T23:56:05.516Z,23.87
2023-08-11T23:58:07.205Z,23.87
